KPHN/PHN METAR and TAF weather

Enter ICAO airport designator
Station Type Date Time Source
KPHN METAR 2022/01/26 19:35 UTC NOAA

KPHN 261935Z AUTO 22005KT 10SM CLR M08/M21 A3037 RMK AO2


Station Type Date Time Source
KPHN Decoded METAR 2022/01/26 19:35 UTC NOAA

St. Clair County International, MI, United States (KPHN) 42-55N 082-32W
Jan 26, 2022 - 02:35 PM EST / 2022.01.26 1935 UTC
Wind: from the SW (220 degrees) at 6 MPH (5 KT):0
Visibility: 10 mile(s):0
Sky conditions: clear
Temperature: 17 F (-8 C)
Windchill: 8 F (-13 C):1
Dew Point: -5 F (-21 C)
Relative Humidity: 34%
Pressure (altimeter): 30.37 in. Hg (1028 hPa)
ob: KPHN 261935Z AUTO 22005KT 10SM CLR M08/M21 A3037 RMK AO2
cycle: 19

Station Type Date Time Source
KPHN TAF UTC NOAA

Error!

Example: see airport list